Time;durP1;ratioP1;P1;durP2;ratioP2;P2;SDS_P1;SDS_P2;PMS_P1;PMS_P2;Temp;Humidity;BMP_temperature;BMP_pressure;BME280_temperature;BME280_humidity;BME280_pressure;Samples;Min_cycle;Max_cycle;Signal;HPM_P1;HPM_P2
2022/03/21 00:02:58;;;;;;;11.80;10.68;;;21.40;60.40;;;;;;6126463;28;88786;-67
2022/03/21 00:06:01;;;;;;;11.40;10.30;;;21.40;60.30;;;;;;6133190;28;89400;-68
2022/03/21 00:09:03;;;;;;;11.80;10.68;;;21.40;60.30;;;;;;6132687;28;89077;-68
2022/03/21 00:12:07;;;;;;;11.57;10.50;;;21.40;60.30;;;;;;6131391;28;89113;-68
2022/03/21 00:15:10;;;;;;;11.40;10.30;;;21.40;60.40;;;;;;6131026;28;89065;-68
2022/03/21 00:18:13;;;;;;;11.10;10.10;;;21.30;60.20;;;;;;6134660;28;88327;-68
2022/03/21 00:21:16;;;;;;;11.52;10.43;;;21.30;60.20;;;;;;6131835;28;88997;-68
2022/03/21 00:24:18;;;;;;;11.60;10.50;;;21.30;60.20;;;;;;6132984;28;89172;-68
2022/03/21 00:27:21;;;;;;;11.40;10.30;;;21.30;60.40;;;;;;6133314;28;90108;-68
2022/03/21 00:30:24;;;;;;;11.00;10.00;;;21.30;60.30;;;;;;6132990;28;89450;-67
2022/03/21 00:33:26;;;;;;;10.45;9.45;;;21.30;60.40;;;;;;6132791;28;89221;-68
2022/03/21 00:36:28;;;;;;;11.10;10.02;;;21.30;60.70;;;;;;6131813;28;88124;-68
2022/03/21 00:39:30;;;;;;;11.45;10.35;;;21.30;60.50;;;;;;6120841;28;90699;-68
2022/03/21 00:42:34;;;;;;;10.90;9.90;;;21.30;60.50;;;;;;6134332;28;90041;-68
2022/03/21 00:45:36;;;;;;;10.70;9.70;;;21.30;60.60;;;;;;6131589;28;88900;-68
2022/03/21 00:48:38;;;;;;;11.10;10.10;;;21.20;60.50;;;;;;6126001;28;88553;-68
2022/03/21 00:51:41;;;;;;;10.52;9.52;;;21.20;60.60;;;;;;6133756;28;89003;-68
2022/03/21 00:54:43;;;;;;;10.68;9.68;;;21.20;60.70;;;;;;6133665;28;89464;-68
2022/03/21 00:57:47;;;;;;;9.95;8.98;;;21.20;60.60;;;;;;6132222;28;88925;-67
2022/03/21 01:00:49;;;;;;;10.48;9.52;;;21.20;60.50;;;;;;6133140;28;89130;-67
2022/03/21 01:03:51;;;;;;;10.65;9.65;;;21.20;60.70;;;;;;6122723;28;89913;-68
2022/03/21 01:06:53;;;;;;;9.82;8.93;;;21.20;60.80;;;;;;6130345;28;89021;-68
2022/03/21 01:09:55;;;;;;;10.02;9.13;;;21.20;60.70;;;;;;6132840;28;89118;-67
2022/03/21 01:12:58;;;;;;;9.70;8.80;;;21.20;60.80;;;;;;6132737;28;89770;-68
2022/03/21 01:16:00;;;;;;;10.23;9.23;;;21.20;60.80;;;;;;6125657;28;88112;-67
2022/03/21 01:19:02;;;;;;;9.38;8.52;;;21.20;60.80;;;;;;6133156;28;88400;-68
2022/03/21 01:22:06;;;;;;;9.98;9.07;;;21.20;60.80;;;;;;6132422;28;89121;-67
2022/03/21 01:25:10;;;;;;;9.52;8.63;;;21.20;60.70;;;;;;6134010;28;89046;-68
2022/03/21 01:28:13;;;;;;;9.32;8.50;;;21.20;60.70;;;;;;6132742;28;89998;-67
2022/03/21 01:31:15;;;;;;;9.70;8.80;;;21.20;60.70;;;;;;6130694;28;89078;-68
2022/03/21 01:34:17;;;;;;;9.52;8.65;;;21.20;60.70;;;;;;6134097;28;89348;-68
2022/03/21 01:37:19;;;;;;;9.13;8.32;;;21.10;60.70;;;;;;6134139;28;89059;-67
2022/03/21 01:40:21;;;;;;;9.02;8.23;;;21.10;60.70;;;;;;6118765;28;89429;-68
2022/03/21 01:46:45;;;;;;;9.40;8.50;;;21.10;60.90;;;;;;6120574;28;87352;-67
2022/03/21 01:49:48;;;;;;;8.70;7.90;;;21.10;60.80;;;;;;6126375;28;86240;-68
2022/03/21 01:55:43;;;;;;;8.57;7.82;;;21.10;60.80;;;;;;6133762;28;89169;-68
2022/03/21 01:56:13;;;;;;;8.95;8.15;;;21.10;60.90;;;;;;6128900;28;89044;-68
2022/03/21 01:59:17;;;;;;;8.40;7.63;;;21.10;60.90;;;;;;6131135;28;90048;-68
2022/03/21 02:02:19;;;;;;;8.27;7.57;;;21.10;60.90;;;;;;6133172;28;87990;-67
2022/03/21 02:05:21;;;;;;;8.60;7.80;;;21.10;60.90;;;;;;6132061;28;89258;-68
2022/03/21 02:08:24;;;;;;;8.45;7.65;;;21.10;61.00;;;;;;6131323;28;89090;-68
2022/03/21 02:11:27;;;;;;;8.25;7.47;;;21.10;61.00;;;;;;6131362;28;89144;-68
2022/03/21 02:14:30;;;;;;;8.65;7.85;;;21.10;61.10;;;;;;6128942;28;88998;-67
2022/03/21 02:17:36;;;;;;;7.80;7.10;;;21.10;60.90;;;;;;6130353;28;89118;-67
2022/03/21 02:20:42;;;;;;;7.78;7.07;;;21.10;61.00;;;;;;6132883;28;88447;-68
2022/03/21 02:23:50;;;;;;;8.32;7.63;;;21.10;61.00;;;;;;6133448;28;89256;-68
2022/03/21 02:26:54;;;;;;;8.50;7.70;;;21.10;61.00;;;;;;6132778;28;89450;-68
2022/03/21 02:29:57;;;;;;;8.20;7.50;;;21.10;61.00;;;;;;6132729;28;90064;-67
2022/03/21 02:33:02;;;;;;;8.40;7.60;;;21.10;61.00;;;;;;6121215;28;89055;-68
2022/03/21 02:36:04;;;;;;;8.65;7.85;;;21.10;61.00;;;;;;6133504;28;91112;-67
2022/03/21 02:39:06;;;;;;;8.73;7.97;;;21.00;61.80;;;;;;6132289;28;89479;-68
2022/03/21 02:42:10;;;;;;;8.65;7.85;;;21.00;60.90;;;;;;6128106;28;89085;-68
2022/03/21 02:45:12;;;;;;;8.68;7.88;;;21.10;60.90;;;;;;6126141;28;89255;-67
2022/03/21 02:48:15;;;;;;;8.90;8.10;;;21.00;60.90;;;;;;6129308;28;89113;-68
2022/03/21 02:51:21;;;;;;;8.63;7.82;;;21.00;60.90;;;;;;6126269;28;88512;-68
2022/03/21 02:54:23;;;;;;;9.32;8.43;;;21.00;61.10;;;;;;6111715;28;89898;-68
2022/03/21 02:57:31;;;;;;;9.32;8.43;;;21.00;61.00;;;;;;6123841;28;89200;-68
2022/03/21 03:00:33;;;;;;;9.18;8.38;;;21.00;61.00;;;;;;6126452;28;90041;-68
2022/03/21 03:03:35;;;;;;;8.85;8.02;;;21.00;61.20;;;;;;6118885;28;89078;-67
2022/03/21 03:06:39;;;;;;;9.23;8.32;;;21.00;61.10;;;;;;6129953;28;89107;-68
2022/03/21 03:09:41;;;;;;;9.50;8.60;;;21.00;61.20;;;;;;6123751;28;89099;-68
2022/03/21 03:12:45;;;;;;;10.05;9.05;;;20.90;61.00;;;;;;6130173;28;89064;-68
2022/03/21 03:15:47;;;;;;;9.63;8.73;;;21.00;61.10;;;;;;6136055;28;89151;-67
2022/03/21 03:18:49;;;;;;;9.57;8.73;;;21.00;61.10;;;;;;6121750;28;91529;-68
2022/03/21 03:21:52;;;;;;;9.10;8.30;;;21.00;61.20;;;;;;6128243;28;88250;-68
2022/03/21 03:24:54;;;;;;;9.80;8.90;;;20.90;61.20;;;;;;6131954;28;89130;-68
2022/03/21 03:27:58;;;;;;;9.38;8.48;;;21.00;61.20;;;;;;6126788;28;90221;-68
2022/03/21 03:31:02;;;;;;;10.30;9.30;;;20.90;61.20;;;;;;6133298;28;90415;-68
2022/03/21 03:34:05;;;;;;;9.45;8.55;;;21.00;61.10;;;;;;6132724;28;89114;-68
2022/03/21 03:37:07;;;;;;;9.70;8.80;;;21.00;61.20;;;;;;6116765;28;89183;-68
2022/03/21 03:40:11;;;;;;;9.80;8.90;;;21.00;61.10;;;;;;6131186;28;88225;-68
2022/03/21 03:43:16;;;;;;;9.82;8.93;;;21.00;61.20;;;;;;6112564;28;89218;-68
2022/03/21 03:46:18;;;;;;;10.32;9.32;;;20.90;61.20;;;;;;6133458;28;89116;-68
2022/03/21 03:49:21;;;;;;;9.93;9.02;;;20.90;61.10;;;;;;6130175;28;89072;-68
2022/03/21 03:52:23;;;;;;;9.70;8.80;;;20.90;61.20;;;;;;6117252;28;87204;-68
2022/03/21 03:55:26;;;;;;;10.73;9.73;;;20.90;61.10;;;;;;6133160;28;89099;-68
2022/03/21 03:58:29;;;;;;;9.63;8.73;;;20.90;61.10;;;;;;6133438;28;89143;-68
2022/03/21 04:01:50;;;;;;;10.45;9.35;;;20.90;61.10;;;;;;6120590;28;89948;-67
2022/03/21 04:04:52;;;;;;;9.85;8.95;;;20.90;61.20;;;;;;6118110;28;88914;-68
2022/03/21 04:07:54;;;;;;;9.38;8.50;;;20.90;61.10;;;;;;6131583;28;88971;-68
2022/03/21 04:10:56;;;;;;;9.60;8.77;;;20.80;61.10;;;;;;6118711;28;89125;-68
2022/03/21 04:14:00;;;;;;;9.50;8.60;;;20.90;61.20;;;;;;6133907;28;89055;-68
2022/03/21 04:17:02;;;;;;;9.80;8.90;;;20.90;61.00;;;;;;6128940;28;89104;-67
2022/03/21 04:20:05;;;;;;;9.20;8.40;;;20.80;60.90;;;;;;6126711;28;87975;-68
2022/03/21 04:23:09;;;;;;;8.60;7.80;;;20.90;60.80;;;;;;6135424;28;86628;-67
2022/03/21 04:26:30;;;;;;;9.40;8.50;;;20.80;60.70;;;;;;6134727;28;89102;-68
2022/03/21 04:29:33;;;;;;;9.57;8.68;;;20.80;60.70;;;;;;6125269;28;89216;-67
2022/03/21 04:32:35;;;;;;;8.98;8.18;;;20.90;60.70;;;;;;6120439;28;90411;-67
2022/03/21 04:35:39;;;;;;;9.48;8.57;;;20.90;60.70;;;;;;6133577;28;89094;-68
2022/03/21 04:38:41;;;;;;;9.15;8.25;;;20.90;60.60;;;;;;6134258;28;87891;-67
2022/03/21 04:41:44;;;;;;;9.63;8.73;;;20.90;60.50;;;;;;6122799;28;89031;-68
2022/03/21 04:44:48;;;;;;;9.02;8.13;;;20.90;60.50;;;;;;6131681;28;89523;-67
2022/03/21 04:47:50;;;;;;;9.05;8.25;;;20.90;60.50;;;;;;6128412;28;88064;-67
2022/03/21 04:50:53;;;;;;;8.90;8.10;;;21.00;60.40;;;;;;6122305;28;89021;-67
2022/03/21 04:53:55;;;;;;;8.80;8.00;;;21.00;60.40;;;;;;6128079;28;88194;-67
2022/03/21 04:56:57;;;;;;;8.48;7.78;;;21.00;60.40;;;;;;6132940;28;89007;-67
2022/03/21 05:00:00;;;;;;;8.30;7.53;;;21.00;60.40;;;;;;6129316;28;88024;-68
2022/03/21 05:03:07;;;;;;;8.98;8.18;;;21.00;60.30;;;;;;6123960;28;89266;-67
2022/03/21 05:06:09;;;;;;;8.40;7.60;;;21.10;60.30;;;;;;6132322;28;89066;-67
2022/03/21 05:09:11;;;;;;;8.50;7.70;;;21.10;60.70;;;;;;6120932;28;90969;-68
2022/03/21 05:12:13;;;;;;;8.48;7.68;;;21.10;60.20;;;;;;6111385;28;89158;-68
2022/03/21 05:15:17;;;;;;;7.75;7.05;;;21.20;60.20;;;;;;6132715;28;89105;-67
2022/03/21 05:18:22;;;;;;;8.05;7.35;;;21.20;60.20;;;;;;6133174;28;89056;-68
2022/03/21 05:21:24;;;;;;;8.07;7.38;;;21.20;60.10;;;;;;6133956;28;89070;-68
2022/03/21 05:31:09;;;;;;;7.90;7.20;;;21.20;60.00;;;;;;6132775;28;87107;-66
2022/03/21 05:37:31;;;;;;;7.90;7.10;;;21.30;59.90;;;;;;6133918;28;87902;-68
2022/03/21 05:40:34;;;;;;;7.63;6.93;;;21.30;60.00;;;;;;6133576;28;88135;-68
2022/03/21 05:43:36;;;;;;;7.72;7.03;;;21.30;59.90;;;;;;6131912;28;89015;-67
2022/03/21 05:46:39;;;;;;;7.35;6.70;;;21.30;59.90;;;;;;6131396;28;89117;-67
2022/03/21 05:49:41;;;;;;;7.25;6.60;;;21.40;60.00;;;;;;6130696;28;89038;-68
2022/03/21 05:52:43;;;;;;;7.10;6.50;;;21.30;59.80;;;;;;6126565;28;89485;-67
2022/03/21 05:55:46;;;;;;;7.00;6.40;;;21.40;59.90;;;;;;6132376;28;88654;-68
2022/03/21 06:02:23;;;;;;;7.07;6.47;;;21.40;59.90;;;;;;6120184;28;89025;-67
2022/03/21 06:05:25;;;;;;;6.60;6.00;;;21.40;59.80;;;;;;6122150;28;90318;-67
2022/03/21 06:08:27;;;;;;;6.65;6.05;;;21.50;59.90;;;;;;6121543;28;89142;-67
2022/03/21 06:11:30;;;;;;;7.05;6.45;;;21.50;59.80;;;;;;6128464;28;89169;-67
2022/03/21 06:14:32;;;;;;;6.80;6.20;;;21.50;59.80;;;;;;6134748;28;89696;-67
2022/03/21 06:17:39;;;;;;;6.78;6.18;;;21.50;59.70;;;;;;6134919;28;89099;-67
2022/03/21 06:20:41;;;;;;;6.47;5.88;;;21.50;59.70;;;;;;6132515;28;89299;-68
2022/03/21 06:23:43;;;;;;;6.35;5.75;;;21.50;59.70;;;;;;6127599;28;89364;-67
2022/03/21 06:26:45;;;;;;;6.40;5.80;;;21.60;59.70;;;;;;6136354;28;88440;-68
2022/03/21 06:29:47;;;;;;;6.20;5.65;;;21.50;59.70;;;;;;6123790;28;89350;-67
2022/03/21 06:32:53;;;;;;;5.90;5.40;;;21.60;59.70;;;;;;6113297;28;89040;-67
2022/03/21 06:35:57;;;;;;;6.43;5.82;;;21.60;59.70;;;;;;6133470;28;90156;-68
2022/03/21 06:38:59;;;;;;;6.20;5.60;;;21.60;59.60;;;;;;6137991;28;89045;-68
2022/03/21 06:42:01;;;;;;;6.40;5.80;;;21.60;59.60;;;;;;6137772;28;89053;-68
2022/03/21 06:45:03;;;;;;;6.40;5.80;;;21.60;59.60;;;;;;6137098;28;89079;-68
2022/03/21 06:48:07;;;;;;;6.20;5.60;;;21.60;59.60;;;;;;6127728;28;89009;-67
2022/03/21 06:51:09;;;;;;;5.97;5.47;;;21.60;59.60;;;;;;6121297;28;89022;-68
2022/03/21 06:54:11;;;;;;;6.22;5.72;;;21.60;59.60;;;;;;6137131;28;89416;-68
2022/03/21 06:57:13;;;;;;;6.50;5.85;;;21.60;59.60;;;;;;6137750;28;88436;-67
2022/03/21 07:00:16;;;;;;;5.78;5.28;;;21.60;59.60;;;;;;6111165;28;89063;-68
2022/03/21 07:03:20;;;;;;;5.78;5.28;;;21.60;59.70;;;;;;6125223;28;88194;-67
2022/03/21 07:06:22;;;;;;;6.03;5.50;;;21.60;59.70;;;;;;6125861;28;89881;-68
2022/03/21 07:09:24;;;;;;;6.22;5.63;;;21.60;59.70;;;;;;6121843;28;89036;-68
2022/03/21 07:12:27;;;;;;;5.85;5.30;;;21.60;59.70;;;;;;6125513;28;89189;-67
2022/03/21 07:15:29;;;;;;;5.80;5.30;;;21.60;59.80;;;;;;6123144;28;88317;-67
2022/03/21 07:18:32;;;;;;;5.30;4.80;;;21.60;59.80;;;;;;6125679;28;89026;-67
2022/03/21 07:21:35;;;;;;;5.40;4.90;;;21.60;59.80;;;;;;6135161;28;89154;-67
2022/03/21 07:24:37;;;;;;;6.00;5.40;;;21.60;59.80;;;;;;6125623;28;89443;-68
2022/03/21 07:27:38;;;;;;;5.63;5.13;;;21.60;59.80;;;;;;6123974;28;88811;-67
2022/03/21 07:30:42;;;;;;;5.40;5.00;;;21.60;59.80;;;;;;6129488;28;89437;-67
2022/03/21 07:33:45;;;;;;;5.38;4.88;;;21.60;59.80;;;;;;6130798;28;89187;-68
2022/03/21 07:36:47;;;;;;;5.18;4.68;;;21.60;59.80;;;;;;6112200;28;90028;-67
2022/03/21 07:39:49;;;;;;;5.30;4.80;;;21.60;59.80;;;;;;6126223;28;89256;-68
2022/03/21 07:42:51;;;;;;;5.65;5.15;;;21.60;59.80;;;;;;6135774;28;88990;-68
2022/03/21 07:49:15;;;;;;;5.28;4.80;;;21.70;59.80;;;;;;6131561;28;87336;-68
2022/03/21 07:52:20;;;;;;;5.15;4.65;;;21.70;59.80;;;;;;6121485;28;87947;-68
2022/03/21 07:55:23;;;;;;;5.45;4.95;;;21.70;59.80;;;;;;6134342;28;89082;-67
2022/03/21 07:58:25;;;;;;;4.97;4.47;;;21.60;59.70;;;;;;6134477;28;88756;-67
2022/03/21 08:01:30;;;;;;;5.35;4.75;;;21.70;59.80;;;;;;6123237;28;89114;-68
2022/03/21 08:04:33;;;;;;;5.10;4.60;;;21.70;59.90;;;;;;6134640;28;89216;-67
2022/03/21 08:07:37;;;;;;;5.07;4.45;;;21.70;59.80;;;;;;6134634;28;89590;-68
2022/03/21 08:10:39;;;;;;;5.10;4.60;;;21.70;59.90;;;;;;6123588;28;89196;-67
2022/03/21 08:13:41;;;;;;;4.82;4.40;;;21.70;59.90;;;;;;6133679;28;89018;-67
2022/03/21 08:16:46;;;;;;;4.90;4.50;;;21.70;59.90;;;;;;6135015;28;89102;-67
2022/03/21 08:19:49;;;;;;;5.40;4.80;;;21.70;59.80;;;;;;6135434;28;87985;-68
2022/03/21 08:22:52;;;;;;;5.22;4.72;;;21.80;59.90;;;;;;6120632;28;89013;-67
2022/03/21 08:25:56;;;;;;;4.82;4.43;;;21.80;59.90;;;;;;6133510;28;89128;-68
2022/03/21 08:28:58;;;;;;;4.80;4.40;;;21.80;59.90;;;;;;6132103;28;88347;-67
2022/03/21 08:32:00;;;;;;;4.60;4.20;;;21.80;59.80;;;;;;6135820;28;89005;-67
2022/03/21 08:35:03;;;;;;;4.55;4.15;;;21.80;59.80;;;;;;6134840;28;89254;-67
2022/03/21 08:38:07;;;;;;;4.35;3.95;;;21.80;59.80;;;;;;6132368;28;88999;-67
2022/03/21 08:41:09;;;;;;;4.78;4.28;;;21.80;59.80;;;;;;6134319;28;89212;-68
2022/03/21 08:44:11;;;;;;;4.90;4.40;;;21.80;59.80;;;;;;6132541;28;89370;-67
2022/03/21 08:47:13;;;;;;;4.60;4.20;;;21.90;59.90;;;;;;6120629;28;89079;-67
2022/03/21 08:50:17;;;;;;;4.68;4.28;;;21.80;59.80;;;;;;6125673;28;88945;-67
2022/03/21 08:53:19;;;;;;;4.32;3.92;;;21.90;59.80;;;;;;6117157;28;89413;-68
2022/03/21 08:56:21;;;;;;;4.90;4.40;;;21.80;59.80;;;;;;6133892;28;89038;-67
2022/03/21 08:59:23;;;;;;;4.75;4.35;;;21.90;59.80;;;;;;6134867;28;88252;-67
2022/03/21 09:02:26;;;;;;;5.00;4.53;;;21.90;59.90;;;;;;6109711;28;87974;-67
2022/03/21 09:05:29;;;;;;;5.20;4.70;;;21.90;59.80;;;;;;6109169;28;88030;-67
2022/03/21 09:08:31;;;;;;;4.85;4.35;;;21.90;59.90;;;;;;6124337;28;89994;-67
2022/03/21 09:11:33;;;;;;;4.63;4.22;;;21.90;59.90;;;;;;6126590;28;89108;-67
2022/03/21 09:14:35;;;;;;;4.55;4.15;;;21.90;59.90;;;;;;6132769;28;89081;-68
2022/03/21 09:17:38;;;;;;;4.55;4.15;;;21.90;59.90;;;;;;6132561;28;88030;-67
2022/03/21 09:20:41;;;;;;;4.57;4.15;;;21.90;59.90;;;;;;6134365;28;87964;-68
2022/03/21 09:23:44;;;;;;;4.35;3.95;;;21.90;60.00;;;;;;6119593;28;89530;-67
2022/03/21 09:26:46;;;;;;;4.35;3.95;;;21.90;60.00;;;;;;6120604;28;88484;-68
2022/03/21 09:29:48;;;;;;;4.55;4.00;;;21.90;60.00;;;;;;6122168;28;88281;-67
2022/03/21 09:32:50;;;;;;;4.50;4.10;;;21.90;59.90;;;;;;6119969;28;88261;-67
2022/03/21 09:35:53;;;;;;;4.30;3.90;;;22.00;60.00;;;;;;6120691;28;88745;-67
2022/03/21 09:38:55;;;;;;;4.53;4.13;;;21.90;59.90;;;;;;6119277;28;90067;-68
2022/03/21 09:41:57;;;;;;;4.30;3.90;;;22.00;60.00;;;;;;6127132;28;87772;-67
2022/03/21 09:44:59;;;;;;;4.32;3.92;;;22.00;60.00;;;;;;6112264;28;89128;-67
2022/03/21 09:48:12;;;;;;;4.38;3.97;;;22.00;60.00;;;;;;6129542;28;89091;-67
2022/03/21 09:51:20;;;;;;;3.97;3.67;;;22.00;60.00;;;;;;6132376;28;89073;-67
2022/03/21 09:54:22;;;;;;;4.10;3.70;;;22.00;60.00;;;;;;6122021;28;89186;-67
2022/03/21 09:57:26;;;;;;;4.30;3.90;;;22.00;60.00;;;;;;6124212;28;89242;-67
2022/03/21 10:00:28;;;;;;;3.88;3.47;;;22.00;60.00;;;;;;6128959;28;88383;-67
2022/03/21 10:03:30;;;;;;;4.13;3.72;;;22.00;60.00;;;;;;6112841;28;89172;-67
2022/03/21 10:06:35;;;;;;;4.22;3.83;;;22.00;60.00;;;;;;6130382;28;89117;-67
2022/03/21 10:09:37;;;;;;;4.30;3.90;;;22.00;60.00;;;;;;6126866;28;88904;-67
2022/03/21 10:12:40;;;;;;;3.97;3.67;;;22.00;60.00;;;;;;6133135;28;89101;-68
2022/03/21 10:15:42;;;;;;;4.25;3.85;;;22.00;60.00;;;;;;6112846;28;89189;-67
2022/03/21 10:18:57;;;;;;;3.70;3.40;;;22.10;60.00;;;;;;6123144;28;87932;-67
2022/03/21 10:22:07;;;;;;;4.40;4.00;;;22.00;60.00;;;;;;6112145;28;89108;-67
2022/03/21 10:25:12;;;;;;;4.15;3.75;;;22.00;60.00;;;;;;6135457;28;89374;-67
2022/03/21 10:28:32;;;;;;;4.05;3.65;;;22.00;60.00;;;;;;6132692;28;88994;-67
2022/03/21 10:31:37;;;;;;;3.70;3.40;;;22.00;60.10;;;;;;6136393;28;88748;-67
2022/03/21 10:34:40;;;;;;;4.18;3.78;;;22.00;60.00;;;;;;6113128;28;89099;-67
2022/03/21 10:37:49;;;;;;;3.72;3.42;;;22.00;60.00;;;;;;6134304;28;89062;-67
2022/03/21 10:40:51;;;;;;;3.90;3.55;;;22.00;60.00;;;;;;6134879;28;89994;-67
2022/03/21 10:43:54;;;;;;;4.18;3.78;;;22.10;60.10;;;;;;6115159;28;89320;-67
2022/03/21 10:46:59;;;;;;;3.60;3.30;;;22.10;60.10;;;;;;6133082;28;88978;-67
2022/03/21 10:50:03;;;;;;;3.80;3.50;;;22.10;60.00;;;;;;6119620;28;88781;-67
2022/03/21 10:53:09;;;;;;;3.75;3.45;;;22.10;60.00;;;;;;6118792;28;89835;-67
2022/03/21 10:56:12;;;;;;;4.10;3.70;;;22.10;60.00;;;;;;6136628;28;89110;-68
2022/03/21 10:59:17;;;;;;;3.70;3.40;;;22.10;60.00;;;;;;6134459;28;89006;-67
2022/03/21 11:02:19;;;;;;;4.00;3.60;;;22.10;60.00;;;;;;6124186;28;88375;-67
2022/03/21 11:05:23;;;;;;;3.80;3.50;;;22.10;60.00;;;;;;6134741;28;88296;-68
2022/03/21 11:08:26;;;;;;;3.83;3.53;;;22.10;60.00;;;;;;6131186;28;88028;-67
2022/03/21 11:11:29;;;;;;;3.88;3.47;;;22.10;60.00;;;;;;6129369;28;89888;-67
2022/03/21 11:14:32;;;;;;;3.65;3.35;;;22.10;60.00;;;;;;6121628;28;89362;-67
2022/03/21 11:17:34;;;;;;;3.70;3.40;;;22.10;60.00;;;;;;6133093;28;89093;-67
2022/03/21 11:20:37;;;;;;;3.85;3.50;;;22.10;60.00;;;;;;6124190;28;89244;-67
2022/03/21 11:23:41;;;;;;;3.75;3.42;;;22.10;60.00;;;;;;6124270;28;88856;-67
2022/03/21 11:26:54;;;;;;;3.47;3.17;;;22.10;60.00;;;;;;6134979;28;89103;-68
2022/03/21 11:30:03;;;;;;;3.83;3.53;;;22.10;60.00;;;;;;6123521;28;89034;-67
2022/03/21 11:33:33;;;;;;;3.67;3.38;;;22.10;60.10;;;;;;6135346;28;88106;-67
2022/03/21 11:36:50;;;;;;;3.45;3.15;;;22.10;60.00;;;;;;6135242;28;88995;-67
2022/03/21 11:40:28;;;;;;;3.50;3.20;;;22.10;60.10;;;;;;6123394;28;89002;-67
2022/03/21 11:43:32;;;;;;;3.67;3.38;;;22.10;60.10;;;;;;6129803;28;89978;-67
2022/03/21 11:46:35;;;;;;;3.47;3.17;;;22.10;60.10;;;;;;6134736;28;89213;-67
2022/03/21 11:49:46;;;;;;;3.40;3.10;;;22.10;60.10;;;;;;6119400;28;89083;-67
2022/03/21 11:53:07;;;;;;;3.60;3.30;;;22.10;60.10;;;;;;6116459;28;89118;-67
2022/03/21 11:56:09;;;;;;;3.33;3.03;;;22.10;60.00;;;;;;6122396;28;88214;-67
2022/03/21 11:59:49;;;;;;;3.65;3.35;;;22.10;60.10;;;;;;6133507;28;89313;-67
2022/03/21 12:03:00;;;;;;;3.65;3.35;;;22.20;60.10;;;;;;6122961;28;88874;-67
2022/03/21 12:06:24;;;;;;;3.70;3.40;;;22.20;60.10;;;;;;6133229;28;88324;-67
2022/03/21 12:09:40;;;;;;;3.53;3.22;;;22.10;60.10;;;;;;6123388;28;89117;-67
2022/03/21 12:12:54;;;;;;;3.15;2.88;;;22.20;60.10;;;;;;6132414;28;89146;-67
2022/03/21 12:16:00;;;;;;;3.20;2.90;;;22.20;60.10;;;;;;6131766;28;90032;-67
2022/03/21 12:19:04;;;;;;;3.60;3.30;;;22.20;60.10;;;;;;6112782;28;89216;-67
2022/03/21 12:22:34;;;;;;;3.50;3.20;;;22.20;60.10;;;;;;6134362;28;89793;-67
2022/03/21 12:25:46;;;;;;;3.30;3.00;;;22.20;60.10;;;;;;6120294;28;88986;-68
2022/03/21 12:32:28;;;;;;;3.22;2.95;;;22.20;60.10;;;;;;6110533;28;87626;-65
2022/03/21 12:35:56;;;;;;;3.10;2.83;;;22.20;61.00;;;;;;6109352;28;89151;-65
2022/03/21 12:38:58;;;;;;;3.17;2.97;;;22.20;60.10;;;;;;6129014;28;87490;-65
2022/03/21 12:42:02;;;;;;;3.28;2.97;;;22.20;60.10;;;;;;6133765;28;89081;-66
2022/03/21 12:45:04;;;;;;;3.55;3.25;;;22.20;60.20;;;;;;6128384;28;89124;-66
2022/03/21 12:48:09;;;;;;;3.17;2.95;;;22.10;60.10;;;;;;6113607;28;90053;-65
2022/03/21 12:51:13;;;;;;;3.05;2.85;;;22.20;60.20;;;;;;6133187;28;90959;-65
2022/03/21 12:54:15;;;;;;;3.40;3.10;;;22.20;60.20;;;;;;6119655;28;88144;-65
2022/03/21 12:57:17;;;;;;;3.25;2.95;;;22.20;60.20;;;;;;6121027;28;87965;-65
2022/03/21 13:00:21;;;;;;;3.03;2.75;;;22.20;60.10;;;;;;6129408;28;89013;-66
2022/03/21 13:03:25;;;;;;;3.30;3.10;;;22.20;60.20;;;;;;6115020;28;89068;-65
2022/03/21 13:13:06;;;;;;;2.92;2.72;;;22.20;60.20;;;;;;6115434;28;87318;-65
2022/03/21 13:16:08;;;;;;;3.00;2.80;;;22.20;60.10;;;;;;6126280;28;89095;-65
2022/03/21 13:19:16;;;;;;;3.30;3.05;;;22.20;60.10;;;;;;6116564;28;90006;-65
2022/03/21 13:22:19;;;;;;;3.00;2.80;;;22.20;60.10;;;;;;6109931;28;89244;-65
2022/03/21 13:25:29;;;;;;;3.17;2.88;;;22.20;60.10;;;;;;6134121;28;89732;-65
2022/03/21 13:28:35;;;;;;;3.00;2.80;;;22.20;60.00;;;;;;6128878;28;89021;-65
2022/03/21 13:31:37;;;;;;;3.30;3.00;;;22.20;60.00;;;;;;6122454;28;89074;-65
2022/03/21 13:34:49;;;;;;;3.10;2.90;;;22.20;60.10;;;;;;6133235;28;89188;-65
2022/03/21 13:38:00;;;;;;;3.35;3.05;;;22.10;60.00;;;;;;6134611;28;89075;-65
2022/03/21 13:41:03;;;;;;;3.28;2.97;;;22.10;60.00;;;;;;6134800;28;88308;-65
2022/03/21 13:44:06;;;;;;;3.00;2.80;;;22.20;60.00;;;;;;6132730;28;89079;-64
2022/03/21 13:47:11;;;;;;;3.13;2.80;;;22.20;60.00;;;;;;6132187;28;88973;-65
2022/03/21 13:50:15;;;;;;;2.85;2.65;;;22.20;60.00;;;;;;6129496;28;90560;-65
2022/03/21 13:53:27;;;;;;;2.80;2.60;;;22.20;60.00;;;;;;6127247;28;88067;-65
2022/03/21 13:56:31;;;;;;;2.92;2.72;;;22.10;59.90;;;;;;6132017;28;89147;-65
2022/03/21 13:59:33;;;;;;;3.30;2.92;;;22.20;60.00;;;;;;6125850;28;88176;-65
2022/03/21 14:02:42;;;;;;;3.10;2.80;;;22.10;60.00;;;;;;6126940;28;89044;-65
2022/03/21 14:06:06;;;;;;;3.00;2.80;;;22.20;60.00;;;;;;6119273;28;89189;-65
2022/03/21 14:09:08;;;;;;;3.05;2.85;;;22.10;60.00;;;;;;6110234;28;89528;-65
2022/03/21 14:12:11;;;;;;;2.80;2.60;;;22.10;59.90;;;;;;6120886;28;88729;-65
2022/03/21 14:15:13;;;;;;;3.10;2.80;;;22.20;60.00;;;;;;6133316;28;89130;-67
2022/03/21 14:18:19;;;;;;;3.20;2.90;;;22.10;59.90;;;;;;6130651;28;89124;-65
2022/03/21 14:21:23;;;;;;;3.15;2.92;;;22.10;59.90;;;;;;6130693;28;90087;-65
2022/03/21 14:24:25;;;;;;;2.78;2.58;;;22.10;59.90;;;;;;6126508;28;89785;-65
2022/03/21 14:27:27;;;;;;;3.42;2.80;;;22.10;59.90;;;;;;6124865;28;89010;-65
2022/03/21 14:30:30;;;;;;;3.05;2.75;;;22.20;59.90;;;;;;6132596;28;88181;-65
2022/03/21 14:33:32;;;;;;;2.97;2.78;;;22.20;59.80;;;;;;6114702;28;89984;-65
2022/03/21 14:36:36;;;;;;;3.35;2.80;;;22.20;59.80;;;;;;6119266;28;89553;-65
2022/03/21 14:39:38;;;;;;;2.80;2.60;;;22.20;59.80;;;;;;6118376;28;89247;-65
2022/03/21 14:42:41;;;;;;;2.88;2.67;;;22.20;59.80;;;;;;6126356;28;87358;-65
2022/03/21 14:45:43;;;;;;;6.22;2.97;;;22.20;59.80;;;;;;6119617;28;89489;-65
2022/03/21 14:48:46;;;;;;;4.18;2.88;;;22.20;59.80;;;;;;6124903;28;88971;-65
2022/03/21 14:51:49;;;;;;;2.90;2.70;;;22.20;59.80;;;;;;6123356;28;90118;-65
2022/03/21 14:54:51;;;;;;;2.97;2.67;;;22.10;59.80;;;;;;6128551;28;89265;-65
2022/03/21 14:57:53;;;;;;;3.05;2.70;;;22.10;59.70;;;;;;6127428;28;89397;-65
2022/03/21 15:00:55;;;;;;;3.20;2.90;;;22.10;59.70;;;;;;6122385;28;89363;-65
2022/03/21 15:03:57;;;;;;;2.95;2.72;;;22.10;59.80;;;;;;6123600;28;89437;-65
2022/03/21 15:07:02;;;;;;;2.90;2.70;;;22.10;59.90;;;;;;6131820;28;89236;-65
2022/03/21 15:10:24;;;;;;;3.83;2.90;;;22.20;60.00;;;;;;6122673;28;87142;-65
2022/03/21 15:13:26;;;;;;;2.80;2.60;;;22.20;60.00;;;;;;6123208;28;88650;-65
2022/03/21 15:16:29;;;;;;;2.90;2.60;;;22.10;60.00;;;;;;6110409;28;89467;-65
2022/03/21 15:19:31;;;;;;;2.70;2.50;;;22.20;60.00;;;;;;6131612;28;89570;-65
2022/03/21 15:22:35;;;;;;;3.05;2.70;;;22.20;60.00;;;;;;6127992;28;89865;-65
2022/03/21 15:25:38;;;;;;;3.22;2.80;;;22.10;59.90;;;;;;6124670;28;88301;-65
2022/03/21 15:28:40;;;;;;;3.22;2.92;;;22.20;60.10;;;;;;6127690;28;89131;-65
2022/03/21 15:31:42;;;;;;;2.83;2.60;;;22.20;60.20;;;;;;6120236;28;89187;-66
2022/03/21 15:34:44;;;;;;;2.85;2.38;;;22.10;60.10;;;;;;6126808;28;89240;-65
2022/03/21 15:41:40;;;;;;;2.70;2.50;;;22.20;60.20;;;;;;6120884;28;87322;-66
2022/03/21 15:44:42;;;;;;;3.75;2.72;;;22.10;60.40;;;;;;6124047;28;88326;-66
2022/03/21 15:47:45;;;;;;;4.85;2.80;;;22.10;60.60;;;;;;6125752;28;89102;-65
2022/03/21 15:50:47;;;;;;;2.72;2.53;;;22.10;60.90;;;;;;6126208;28;88991;-66
2022/03/21 15:53:50;;;;;;;5.00;2.88;;;22.10;60.80;;;;;;6113352;28;90005;-65
2022/03/21 15:56:53;;;;;;;3.03;2.72;;;22.10;60.90;;;;;;6120168;28;89110;-65
2022/03/21 15:59:55;;;;;;;4.20;2.78;;;22.20;60.90;;;;;;6118366;28;89148;-66
2022/03/21 16:02:59;;;;;;;3.58;2.90;;;22.20;60.90;;;;;;6138408;28;89325;-65
2022/03/21 16:06:01;;;;;;;3.78;2.70;;;22.20;60.80;;;;;;6134871;28;89094;-66
2022/03/21 16:09:23;;;;;;;4.25;2.83;;;22.20;60.80;;;;;;6127530;28;89362;-65
2022/03/21 16:12:25;;;;;;;2.85;2.55;;;22.20;60.80;;;;;;6134256;28;89074;-65
2022/03/21 16:15:27;;;;;;;4.65;2.75;;;22.10;60.70;;;;;;6118954;28;86352;-68
2022/03/21 16:18:34;;;;;;;3.38;2.60;;;22.10;61.00;;;;;;6124844;28;89124;-66
2022/03/21 16:21:36;;;;;;;2.83;2.63;;;22.10;60.60;;;;;;6135016;28;89357;-65
2022/03/21 16:24:58;;;;;;;5.05;2.60;;;22.10;60.50;;;;;;6134728;28;90049;-65
2022/03/21 16:28:00;;;;;;;2.80;2.60;;;22.10;60.50;;;;;;6108854;28;89021;-65
2022/03/21 16:31:02;;;;;;;3.85;2.50;;;22.10;60.30;;;;;;6123704;28;89080;-65
2022/03/21 16:34:06;;;;;;;3.47;2.63;;;22.20;60.50;;;;;;6124414;28;89236;-65